DAOR/CBH METAR and TAF weather

Enter ICAO airport designator
Station Type Date Time Source
DAOR METAR 2019/07/20 19:19 UTC NOAA

DAOR 201919Z 22020KT 1500 DRSA SCT033 SCT100 38/// Q1016


Station Type Date Time Source
DAOR Decoded METAR 2019/07/20 19:19 UTC NOAA

Bechar, Algeria (DAOR) 31-37N 002-14W 773M
Jul 20, 2019 - 03:19 PM EDT / 2019.07.20 1919 UTC
Wind: from the SW (220 degrees) at 23 MPH (20 KT):0
Visibility: less than 1 mile:0
Sky conditions: partly cloudy
Weather: low drifting sand
Temperature: 100 F (38 C)
Pressure (altimeter): 30.00 in. Hg (1016 hPa)
ob: DAOR 201919Z 22020KT 1500 DRSA SCT033 SCT100 38/// Q1016
cycle: 19

Station Type Date Time Source
DAOR TAF 2017/11/09 18:03 UTC NOAA

TAF DAOR 091700Z 0918/1009 35010KT 6000 FEW033 SCT100
TEMPO 0918/0924 3000 BLSA PROB40
TEMPO 0918/0924 35020G35KT 2000 -TSRA FEW030CB

Example: see airport list